sensor_id;sensor_type;location;lat;lon;timestamp;noise_LAeq;noise_LA_min;noise_LA_max;noise_LA01;noise_LA95
11999;Laerm;40817;51.520;9.954;2023-04-24T00:02:14;41.63;37.52;47.67;;
11999;Laerm;40817;51.520;9.954;2023-04-24T00:04:42;41.56;36.45;45.43;;
11999;Laerm;40817;51.520;9.954;2023-04-24T00:07:10;42.04;37.12;48.95;;
11999;Laerm;40817;51.520;9.954;2023-04-24T00:09:39;41.64;37.52;46.18;;
11999;Laerm;40817;51.520;9.954;2023-04-24T00:12:06;42.49;37.52;64.28;;
11999;Laerm;40817;51.520;9.954;2023-04-24T00:14:34;48.45;38.37;65.03;;
11999;Laerm;40817;51.520;9.954;2023-04-24T00:17:03;43.68;38.37;55.53;;
11999;Laerm;40817;51.520;9.954;2023-04-24T00:19:31;41.88;36.69;51.07;;
11999;Laerm;40817;51.520;9.954;2023-04-24T00:21:58;42.66;38.37;52.75;;
11999;Laerm;40817;51.520;9.954;2023-04-24T00:24:26;42.31;37.32;51.25;;
11999;Laerm;40817;51.520;9.954;2023-04-24T00:26:54;42.45;38.05;53.57;;
11999;Laerm;40817;51.520;9.954;2023-04-24T00:29:21;48.75;38.81;67.20;;
11999;Laerm;40817;51.520;9.954;2023-04-24T00:31:49;42.49;38.21;55.75;;
11999;Laerm;40817;51.520;9.954;2023-04-24T00:34:18;42.22;37.52;51.03;;
11999;Laerm;40817;51.520;9.954;2023-04-24T00:36:45;42.94;38.81;56.40;;
11999;Laerm;40817;51.520;9.954;2023-04-24T00:39:15;42.38;38.52;49.90;;
11999;Laerm;40817;51.520;9.954;2023-04-24T00:41:43;42.18;37.88;44.43;;
11999;Laerm;40817;51.520;9.954;2023-04-24T00:44:11;42.01;37.70;48.57;;
11999;Laerm;40817;51.520;9.954;2023-04-24T00:46:39;42.61;38.52;53.39;;
11999;Laerm;40817;51.520;9.954;2023-04-24T00:49:07;42.75;38.37;48.21;;
11999;Laerm;40817;51.520;9.954;2023-04-24T00:51:36;43.25;38.95;53.05;;
11999;Laerm;40817;51.520;9.954;2023-04-24T00:54:03;44.81;40.80;53.49;;
11999;Laerm;40817;51.520;9.954;2023-04-24T00:56:31;43.25;39.81;45.63;;
11999;Laerm;40817;51.520;9.954;2023-04-24T00:58:59;42.97;38.21;54.45;;
11999;Laerm;40817;51.520;9.954;2023-04-24T01:01:27;42.25;38.37;45.94;;
11999;Laerm;40817;51.520;9.954;2023-04-24T01:03:55;42.10;38.05;44.23;;
11999;Laerm;40817;51.520;9.954;2023-04-24T01:06:24;42.42;38.52;46.30;;
11999;Laerm;40817;51.520;9.954;2023-04-24T01:08:56;41.99;38.21;48.70;;
11999;Laerm;40817;51.520;9.954;2023-04-24T01:11:25;41.66;38.05;44.43;;
11999;Laerm;40817;51.520;9.954;2023-04-24T01:13:53;41.87;37.52;47.26;;
11999;Laerm;40817;51.520;9.954;2023-04-24T01:16:21;42.30;38.37;45.17;;
11999;Laerm;40817;51.520;9.954;2023-04-24T01:18:48;41.69;37.32;44.35;;
11999;Laerm;40817;51.520;9.954;2023-04-24T01:21:16;42.63;38.52;46.07;;
11999;Laerm;40817;51.520;9.954;2023-04-24T01:23:46;42.15;38.37;45.07;;
11999;Laerm;40817;51.520;9.954;2023-04-24T01:26:17;41.82;38.05;46.52;;
11999;Laerm;40817;51.520;9.954;2023-04-24T01:28:46;41.43;36.20;52.68;;
11999;Laerm;40817;51.520;9.954;2023-04-24T01:31:15;41.50;35.04;44.31;;
11999;Laerm;40817;51.520;9.954;2023-04-24T01:33:43;41.99;38.21;58.22;;
11999;Laerm;40817;51.520;9.954;2023-04-24T01:36:11;42.20;38.21;45.99;;
11999;Laerm;40817;51.520;9.954;2023-04-24T01:38:39;42.25;37.52;45.07;;
11999;Laerm;40817;51.520;9.954;2023-04-24T01:41:08;42.48;36.45;66.24;;
11999;Laerm;40817;51.520;9.954;2023-04-24T01:43:35;41.58;37.52;44.07;;
11999;Laerm;40817;51.520;9.954;2023-04-24T01:46:03;41.89;37.70;44.27;;
11999;Laerm;40817;51.520;9.954;2023-04-24T01:48:31;42.07;38.32;44.35;;
11999;Laerm;40817;51.520;9.954;2023-04-24T01:51:19;42.17;37.88;48.07;;
11999;Laerm;40817;51.520;9.954;2023-04-24T01:53:46;42.37;39.21;51.90;;
11999;Laerm;40817;51.520;9.954;2023-04-24T01:56:15;42.80;39.08;57.54;;
11999;Laerm;40817;51.520;9.954;2023-04-24T01:58:43;42.80;38.52;45.20;;
11999;Laerm;40817;51.520;9.954;2023-04-24T02:01:17;42.81;39.08;44.80;;
11999;Laerm;40817;51.520;9.954;2023-04-24T02:03:45;43.08;39.46;49.19;;
11999;Laerm;40817;51.520;9.954;2023-04-24T02:06:13;42.51;38.52;44.65;;
11999;Laerm;40817;51.520;9.954;2023-04-24T02:08:40;42.57;38.47;56.57;;
11999;Laerm;40817;51.520;9.954;2023-04-24T02:11:09;42.70;37.70;45.23;;
11999;Laerm;40817;51.520;9.954;2023-04-24T02:13:38;42.95;39.08;45.34;;
11999;Laerm;40817;51.520;9.954;2023-04-24T02:16:06;42.82;39.08;45.60;;
11999;Laerm;40817;51.520;9.954;2023-04-24T02:18:33;43.64;39.21;51.39;;
11999;Laerm;40817;51.520;9.954;2023-04-24T02:21:01;42.89;39.08;45.72;;
11999;Laerm;40817;51.520;9.954;2023-04-24T02:23:28;42.61;38.67;44.97;;
11999;Laerm;40817;51.520;9.954;2023-04-24T02:25:56;43.28;38.99;53.05;;
11999;Laerm;40817;51.520;9.954;2023-04-24T02:28:23;42.78;39.21;50.29;;
11999;Laerm;40817;51.520;9.954;2023-04-24T02:30:52;42.89;38.52;54.60;;
11999;Laerm;40817;51.520;9.954;2023-04-24T02:33:20;42.45;38.81;45.54;;
11999;Laerm;40817;51.520;9.954;2023-04-24T02:35:48;42.69;38.52;45.33;;
11999;Laerm;40817;51.520;9.954;2023-04-24T02:38:15;42.78;39.21;45.11;;
11999;Laerm;40817;51.520;9.954;2023-04-24T02:40:53;41.81;38.21;44.11;;
11999;Laerm;40817;51.520;9.954;2023-04-24T02:43:21;43.16;37.88;51.14;;
11999;Laerm;40817;51.520;9.954;2023-04-24T02:45:49;43.41;39.21;51.08;;
11999;Laerm;40817;51.520;9.954;2023-04-24T02:48:18;42.02;38.05;48.48;;
11999;Laerm;40817;51.520;9.954;2023-04-24T02:50:47;41.91;38.05;44.15;;
11999;Laerm;40817;51.520;9.954;2023-04-24T02:53:14;42.77;38.52;49.85;;
11999;Laerm;40817;51.520;9.954;2023-04-24T02:55:42;43.42;39.34;47.74;;
11999;Laerm;40817;51.520;9.954;2023-04-24T02:58:10;42.81;39.21;45.57;;
11999;Laerm;40817;51.520;9.954;2023-04-24T03:00:39;44.82;39.11;59.46;;
11999;Laerm;40817;51.520;9.954;2023-04-24T03:03:07;46.80;39.34;61.51;;
11999;Laerm;40817;51.520;9.954;2023-04-24T03:05:55;47.41;39.21;63.82;;
11999;Laerm;40817;51.520;9.954;2023-04-24T03:08:43;47.54;38.95;61.32;;
11999;Laerm;40817;51.520;9.954;2023-04-24T03:11:10;47.82;38.81;63.04;;
11999;Laerm;40817;51.520;9.954;2023-04-24T03:13:38;45.20;40.03;61.24;;
11999;Laerm;40817;51.520;9.954;2023-04-24T03:16:06;44.04;39.21;58.50;;
11999;Laerm;40817;51.520;9.954;2023-04-24T03:18:34;43.36;40.23;52.64;;
11999;Laerm;40817;51.520;9.954;2023-04-24T03:21:03;44.50;39.46;59.68;;
11999;Laerm;40817;51.520;9.954;2023-04-24T03:23:31;43.80;40.89;57.12;;
11999;Laerm;40817;51.520;9.954;2023-04-24T03:25:59;45.08;40.62;57.79;;
11999;Laerm;40817;51.520;9.954;2023-04-24T03:28:27;52.96;40.62;74.54;;
11999;Laerm;40817;51.520;9.954;2023-04-24T03:30:55;45.38;40.71;57.42;;
11999;Laerm;40817;51.520;9.954;2023-04-24T03:33:22;45.85;40.13;59.23;;
11999;Laerm;40817;51.520;9.954;2023-04-24T03:35:50;46.23;40.63;60.85;;
11999;Laerm;40817;51.520;9.954;2023-04-24T03:38:20;45.00;41.06;57.83;;
11999;Laerm;40817;51.520;9.954;2023-04-24T03:40:47;46.07;41.14;57.60;;
11999;Laerm;40817;51.520;9.954;2023-04-24T03:43:15;45.56;41.30;59.92;;
11999;Laerm;40817;51.520;9.954;2023-04-24T03:45:43;43.58;40.89;52.85;;
11999;Laerm;40817;51.520;9.954;2023-04-24T03:48:11;43.97;40.98;58.73;;
11999;Laerm;40817;51.520;9.954;2023-04-24T03:50:39;44.19;41.26;64.69;;
11999;Laerm;40817;51.520;9.954;2023-04-24T03:53:06;43.44;40.71;46.95;;
11999;Laerm;40817;51.520;9.954;2023-04-24T03:55:36;43.69;40.80;47.50;;
11999;Laerm;40817;51.520;9.954;2023-04-24T03:58:03;43.72;40.89;51.22;;
11999;Laerm;40817;51.520;9.954;2023-04-24T04:00:32;44.47;40.89;51.93;;
11999;Laerm;40817;51.520;9.954;2023-04-24T04:03:01;44.37;41.61;51.77;;
11999;Laerm;40817;51.520;9.954;2023-04-24T04:05:29;44.24;40.80;51.79;;
11999;Laerm;40817;51.520;9.954;2023-04-24T04:07:57;43.83;41.53;52.04;;
11999;Laerm;40817;51.520;9.954;2023-04-24T04:10:24;44.26;41.30;58.83;;
11999;Laerm;40817;51.520;9.954;2023-04-24T04:12:53;44.47;41.53;57.88;;
11999;Laerm;40817;51.520;9.954;2023-04-24T04:15:21;44.75;41.68;61.28;;
11999;Laerm;40817;51.520;9.954;2023-04-24T04:17:49;44.43;41.38;61.08;;
11999;Laerm;40817;51.520;9.954;2023-04-24T04:20:17;44.02;40.53;50.56;;
11999;Laerm;40817;51.520;9.954;2023-04-24T04:22:45;45.85;41.89;55.46;;
11999;Laerm;40817;51.520;9.954;2023-04-24T04:25:12;45.39;42.03;56.38;;
11999;Laerm;40817;51.520;9.954;2023-04-24T04:27:40;45.19;41.82;62.07;;
11999;Laerm;40817;51.520;9.954;2023-04-24T04:30:10;48.59;41.82;74.55;;
11999;Laerm;40817;51.520;9.954;2023-04-24T04:32:38;47.06;41.82;64.06;;
11999;Laerm;40817;51.520;9.954;2023-04-24T04:35:06;45.99;41.82;69.61;;
11999;Laerm;40817;51.520;9.954;2023-04-24T04:37:34;44.34;41.75;49.64;;
11999;Laerm;40817;51.520;9.954;2023-04-24T04:40:03;45.45;41.89;69.53;;
11999;Laerm;40817;51.520;9.954;2023-04-24T04:42:33;44.28;41.61;54.71;;
11999;Laerm;40817;51.520;9.954;2023-04-24T04:45:02;58.66;42.29;75.33;;
11999;Laerm;40817;51.520;9.954;2023-04-24T04:47:31;49.67;42.03;62.90;;
11999;Laerm;40817;51.520;9.954;2023-04-24T04:49:59;47.38;41.30;58.50;;
11999;Laerm;40817;51.520;9.954;2023-04-24T04:52:27;47.90;42.09;61.36;;
11999;Laerm;40817;51.520;9.954;2023-04-24T04:54:54;47.91;41.61;63.77;;
11999;Laerm;40817;51.520;9.954;2023-04-24T04:57:22;44.35;40.62;53.98;;
11999;Laerm;40817;51.520;9.954;2023-04-24T04:59:51;44.67;41.75;53.09;;
11999;Laerm;40817;51.520;9.954;2023-04-24T05:02:19;49.95;42.09;83.39;;
11999;Laerm;40817;51.520;9.954;2023-04-24T05:04:48;47.05;42.03;74.96;;
11999;Laerm;40817;51.520;9.954;2023-04-24T05:07:16;44.29;41.82;48.74;;
11999;Laerm;40817;51.520;9.954;2023-04-24T05:09:44;44.29;41.75;50.66;;
11999;Laerm;40817;51.520;9.954;2023-04-24T05:12:12;44.72;41.75;57.47;;
11999;Laerm;40817;51.520;9.954;2023-04-24T05:14:40;45.21;41.75;58.35;;
11999;Laerm;40817;51.520;9.954;2023-04-24T05:17:07;45.47;42.71;59.77;;
11999;Laerm;40817;51.520;9.954;2023-04-24T05:19:35;44.16;41.53;49.56;;
11999;Laerm;40817;51.520;9.954;2023-04-24T05:22:06;47.15;41.61;68.06;;
11999;Laerm;40817;51.520;9.954;2023-04-24T05:24:34;46.09;42.09;69.21;;
11999;Laerm;40817;51.520;9.954;2023-04-24T05:27:02;48.55;42.03;70.05;;
11999;Laerm;40817;51.520;9.954;2023-04-24T05:29:31;46.87;42.35;60.57;;
11999;Laerm;40817;51.520;9.954;2023-04-24T05:32:00;46.38;42.76;61.31;;
11999;Laerm;40817;51.520;9.954;2023-04-24T05:34:27;47.65;41.89;60.85;;
11999;Laerm;40817;51.520;9.954;2023-04-24T05:36:55;55.55;41.94;69.70;;
11999;Laerm;40817;51.520;9.954;2023-04-24T05:39:24;55.27;42.98;72.60;;
11999;Laerm;40817;51.520;9.954;2023-04-24T05:41:52;54.86;44.58;68.47;;
11999;Laerm;40817;51.520;9.954;2023-04-24T05:44:21;50.93;43.14;68.28;;
11999;Laerm;40817;51.520;9.954;2023-04-24T05:46:48;47.41;42.93;58.73;;
11999;Laerm;40817;51.520;9.954;2023-04-24T05:49:16;50.40;43.81;59.67;;
11999;Laerm;40817;51.520;9.954;2023-04-24T05:51:44;46.08;42.53;56.54;;
11999;Laerm;40817;51.520;9.954;2023-04-24T05:54:12;45.79;42.41;58.74;;
11999;Laerm;40817;51.520;9.954;2023-04-24T05:56:41;46.35;42.47;58.22;;
11999;Laerm;40817;51.520;9.954;2023-04-24T05:59:09;45.17;42.47;58.42;;
11999;Laerm;40817;51.520;9.954;2023-04-24T06:01:36;45.55;42.69;62.58;;
11999;Laerm;40817;51.520;9.954;2023-04-24T06:04:04;49.94;43.39;70.25;;
11999;Laerm;40817;51.520;9.954;2023-04-24T06:06:33;46.96;42.82;59.80;;
11999;Laerm;40817;51.520;9.954;2023-04-24T06:09:00;50.50;42.41;65.57;;
11999;Laerm;40817;51.520;9.954;2023-04-24T06:11:29;47.60;42.29;63.17;;
11999;Laerm;40817;51.520;9.954;2023-04-24T06:13:58;45.94;42.47;59.80;;
11999;Laerm;40817;51.520;9.954;2023-04-24T06:16:26;46.38;43.39;57.80;;
11999;Laerm;40817;51.520;9.954;2023-04-24T06:18:54;50.64;43.24;69.84;;
11999;Laerm;40817;51.520;9.954;2023-04-24T06:21:21;45.41;42.53;59.56;;
11999;Laerm;40817;51.520;9.954;2023-04-24T06:23:49;45.69;42.16;56.54;;
11999;Laerm;40817;51.520;9.954;2023-04-24T06:26:17;47.92;42.41;66.01;;
11999;Laerm;40817;51.520;9.954;2023-04-24T06:28:45;44.97;42.29;57.17;;
11999;Laerm;40817;51.520;9.954;2023-04-24T06:31:14;44.93;42.41;51.75;;
11999;Laerm;40817;51.520;9.954;2023-04-24T06:33:42;44.29;41.75;50.54;;
11999;Laerm;40817;51.520;9.954;2023-04-24T06:36:12;45.20;41.82;57.15;;
11999;Laerm;40817;51.520;9.954;2023-04-24T06:38:39;45.54;42.53;56.94;;
11999;Laerm;40817;51.520;9.954;2023-04-24T06:41:07;45.84;42.93;57.55;;
11999;Laerm;40817;51.520;9.954;2023-04-24T06:43:35;45.38;42.76;58.28;;
11999;Laerm;40817;51.520;9.954;2023-04-24T06:46:03;45.13;42.03;54.55;;
11999;Laerm;40817;51.520;9.954;2023-04-24T06:48:32;50.21;42.93;70.36;;
11999;Laerm;40817;51.520;9.954;2023-04-24T06:50:59;47.82;43.09;62.57;;
11999;Laerm;40817;51.520;9.954;2023-04-24T06:53:27;46.12;42.47;58.08;;
11999;Laerm;40817;51.520;9.954;2023-04-24T06:55:55;47.66;42.71;61.66;;
11999;Laerm;40817;51.520;9.954;2023-04-24T06:58:24;51.97;42.71;70.12;;
11999;Laerm;40817;51.520;9.954;2023-04-24T07:00:52;50.33;42.65;71.51;;
11999;Laerm;40817;51.520;9.954;2023-04-24T07:03:20;48.29;43.24;62.99;;
11999;Laerm;40817;51.520;9.954;2023-04-24T07:05:49;46.93;43.09;56.16;;
11999;Laerm;40817;51.520;9.954;2023-04-24T07:08:17;47.29;43.54;59.80;;
11999;Laerm;40817;51.520;9.954;2023-04-24T07:10:46;47.26;42.59;61.05;;
11999;Laerm;40817;51.520;9.954;2023-04-24T07:13:14;46.76;43.29;58.99;;
11999;Laerm;40817;51.520;9.954;2023-04-24T07:15:42;46.13;42.47;58.94;;
11999;Laerm;40817;51.520;9.954;2023-04-24T07:18:10;50.56;42.03;70.81;;
11999;Laerm;40817;51.520;9.954;2023-04-24T07:20:37;45.69;42.82;59.40;;
11999;Laerm;40817;51.520;9.954;2023-04-24T07:23:07;45.51;42.71;55.27;;
11999;Laerm;40817;51.520;9.954;2023-04-24T07:25:34;49.20;42.16;62.38;;
11999;Laerm;40817;51.520;9.954;2023-04-24T07:28:02;44.97;42.22;57.79;;
11999;Laerm;40817;51.520;9.954;2023-04-24T07:30:31;45.84;43.14;54.22;;
11999;Laerm;40817;51.520;9.954;2023-04-24T07:32:59;45.72;42.65;57.41;;
11999;Laerm;40817;51.520;9.954;2023-04-24T07:35:27;51.63;42.88;66.82;;
11999;Laerm;40817;51.520;9.954;2023-04-24T07:37:55;45.26;42.22;54.86;;
11999;Laerm;40817;51.520;9.954;2023-04-24T07:40:24;45.32;42.71;56.81;;
11999;Laerm;40817;51.520;9.954;2023-04-24T07:42:51;45.75;41.96;64.65;;
11999;Laerm;40817;51.520;9.954;2023-04-24T07:45:19;44.28;41.75;52.96;;
11999;Laerm;40817;51.520;9.954;2023-04-24T07:47:46;44.54;42.16;51.26;;
11999;Laerm;40817;51.520;9.954;2023-04-24T07:50:14;45.30;42.35;55.14;;
11999;Laerm;40817;51.520;9.954;2023-04-24T07:52:41;45.46;42.03;54.35;;
11999;Laerm;40817;51.520;9.954;2023-04-24T07:55:09;44.37;41.96;51.30;;
11999;Laerm;40817;51.520;9.954;2023-04-24T07:57:38;44.31;41.68;51.52;;
11999;Laerm;40817;51.520;9.954;2023-04-24T08:00:08;44.12;40.89;54.94;;
11999;Laerm;40817;51.520;9.954;2023-04-24T08:02:36;44.21;41.38;51.80;;
11999;Laerm;40817;51.520;9.954;2023-04-24T08:05:05;51.05;41.89;67.15;;
11999;Laerm;40817;51.520;9.954;2023-04-24T08:07:33;43.92;40.98;52.11;;
11999;Laerm;40817;51.520;9.954;2023-04-24T08:10:01;43.92;41.61;57.61;;
11999;Laerm;40817;51.520;9.954;2023-04-24T08:12:29;50.95;41.06;68.36;;
11999;Laerm;40817;51.520;9.954;2023-04-24T08:14:58;44.17;41.30;55.83;;
11999;Laerm;40817;51.520;9.954;2023-04-24T08:17:26;44.39;41.14;50.79;;
11999;Laerm;40817;51.520;9.954;2023-04-24T08:19:53;44.79;41.96;54.92;;
11999;Laerm;40817;51.520;9.954;2023-04-24T08:22:27;49.18;41.96;68.44;;
11999;Laerm;40817;51.520;9.954;2023-04-24T08:24:55;45.46;42.09;59.43;;
11999;Laerm;40817;51.520;9.954;2023-04-24T08:27:23;44.72;42.22;53.60;;
11999;Laerm;40817;51.520;9.954;2023-04-24T08:29:50;44.28;41.22;54.48;;
11999;Laerm;40817;51.520;9.954;2023-04-24T08:32:19;44.76;41.53;57.52;;
11999;Laerm;40817;51.520;9.954;2023-04-24T08:34:47;48.69;42.13;64.73;;
11999;Laerm;40817;51.520;9.954;2023-04-24T08:37:14;48.67;42.71;64.17;;
11999;Laerm;40817;51.520;9.954;2023-04-24T08:39:42;49.23;42.53;66.27;;
11999;Laerm;40817;51.520;9.954;2023-04-24T08:42:11;45.96;42.47;57.99;;
11999;Laerm;40817;51.520;9.954;2023-04-24T08:44:40;51.90;41.96;73.33;;
11999;Laerm;40817;51.520;9.954;2023-04-24T08:47:08;51.99;42.41;64.93;;
11999;Laerm;40817;51.520;9.954;2023-04-24T08:49:38;46.52;41.82;64.38;;
11999;Laerm;40817;51.520;9.954;2023-04-24T08:52:06;45.61;42.16;58.18;;
11999;Laerm;40817;51.520;9.954;2023-04-24T08:54:34;47.99;43.29;60.26;;
11999;Laerm;40817;51.520;9.954;2023-04-24T08:57:04;45.45;42.22;57.22;;
11999;Laerm;40817;51.520;9.954;2023-04-24T08:59:31;45.04;42.47;54.76;;
11999;Laerm;40817;51.520;9.954;2023-04-24T09:02:00;46.04;41.96;59.95;;
11999;Laerm;40817;51.520;9.954;2023-04-24T09:04:29;47.02;42.98;62.26;;
11999;Laerm;40817;51.520;9.954;2023-04-24T09:07:00;46.73;42.58;65.81;;
11999;Laerm;40817;51.520;9.954;2023-04-24T09:09:30;51.70;42.47;66.79;;
11999;Laerm;40817;51.520;9.954;2023-04-24T09:12:00;47.26;42.59;61.86;;
11999;Laerm;40817;51.520;9.954;2023-04-24T09:14:28;45.57;42.53;56.50;;
11999;Laerm;40817;51.520;9.954;2023-04-24T09:16:58;56.32;42.35;77.63;;
11999;Laerm;40817;51.520;9.954;2023-04-24T09:19:25;47.13;41.89;65.51;;
11999;Laerm;40817;51.520;9.954;2023-04-24T09:21:53;44.58;40.53;60.32;;
11999;Laerm;40817;51.520;9.954;2023-04-24T09:24:22;44.63;41.61;56.31;;
11999;Laerm;40817;51.520;9.954;2023-04-24T09:26:58;45.07;41.61;62.88;;
11999;Laerm;40817;51.520;9.954;2023-04-24T09:29:28;45.10;41.68;60.96;;
11999;Laerm;40817;51.520;9.954;2023-04-24T09:31:55;48.68;42.22;60.34;;
11999;Laerm;40817;51.520;9.954;2023-04-24T09:34:25;50.48;42.71;65.51;;
11999;Laerm;40817;51.520;9.954;2023-04-24T09:36:54;44.93;42.41;56.08;;
11999;Laerm;40817;51.520;9.954;2023-04-24T09:39:23;45.68;41.06;62.14;;
11999;Laerm;40817;51.520;9.954;2023-04-24T09:41:53;46.81;42.47;70.65;;
11999;Laerm;40817;51.520;9.954;2023-04-24T09:44:22;47.70;43.44;59.94;;
11999;Laerm;40817;51.520;9.954;2023-04-24T09:46:53;45.63;42.22;60.13;;
11999;Laerm;40817;51.520;9.954;2023-04-24T09:49:24;44.67;40.98;57.94;;
11999;Laerm;40817;51.520;9.954;2023-04-24T09:51:52;47.45;40.33;67.91;;
11999;Laerm;40817;51.520;9.954;2023-04-24T09:54:30;45.24;42.53;57.83;;
11999;Laerm;40817;51.520;9.954;2023-04-24T09:56:58;44.24;41.61;50.18;;
11999;Laerm;40817;51.520;9.954;2023-04-24T09:59:26;45.20;41.96;57.49;;
11999;Laerm;40817;51.520;9.954;2023-04-24T10:01:53;52.81;43.81;60.88;;
11999;Laerm;40817;51.520;9.954;2023-04-24T10:04:23;50.75;41.75;69.84;;
11999;Laerm;40817;51.520;9.954;2023-04-24T10:06:53;52.93;42.41;74.13;;
11999;Laerm;40817;51.520;9.954;2023-04-24T10:09:23;54.75;43.14;73.64;;
11999;Laerm;40817;51.520;9.954;2023-04-24T10:11:54;50.02;42.82;65.70;;
11999;Laerm;40817;51.520;9.954;2023-04-24T10:14:24;51.65;43.19;66.35;;
11999;Laerm;40817;51.520;9.954;2023-04-24T10:16:55;48.71;42.59;63.85;;
11999;Laerm;40817;51.520;9.954;2023-04-24T10:19:26;46.66;43.29;60.22;;
11999;Laerm;40817;51.520;9.954;2023-04-24T10:21:54;48.21;42.22;69.58;;
11999;Laerm;40817;51.520;9.954;2023-04-24T10:24:22;53.83;43.29;71.82;;
11999;Laerm;40817;51.520;9.954;2023-04-24T10:26:49;50.42;42.98;68.12;;
11999;Laerm;40817;51.520;9.954;2023-04-24T10:29:19;49.63;42.98;62.55;;
11999;Laerm;40817;51.520;9.954;2023-04-24T10:31:47;48.20;42.76;62.88;;
11999;Laerm;40817;51.520;9.954;2023-04-24T10:34:16;49.37;43.72;65.68;;
11999;Laerm;40817;51.520;9.954;2023-04-24T10:36:51;49.74;43.04;64.76;;
11999;Laerm;40817;51.520;9.954;2023-04-24T10:39:20;46.15;41.61;65.05;;
11999;Laerm;40817;51.520;9.954;2023-04-24T10:41:49;50.14;42.29;67.34;;
11999;Laerm;40817;51.520;9.954;2023-04-24T10:44:18;48.31;42.59;64.52;;
11999;Laerm;40817;51.520;9.954;2023-04-24T10:46:54;50.84;42.98;66.84;;
11999;Laerm;40817;51.520;9.954;2023-04-24T10:49:29;48.10;42.29;66.16;;
11999;Laerm;40817;51.520;9.954;2023-04-24T10:52:02;47.15;42.41;66.70;;
11999;Laerm;40817;51.520;9.954;2023-04-24T10:54:36;49.96;42.88;70.36;;
11999;Laerm;40817;51.520;9.954;2023-04-24T10:57:26;47.91;42.65;63.95;;
11999;Laerm;40817;51.520;9.954;2023-04-24T11:00:19;48.52;42.71;66.81;;
11999;Laerm;40817;51.520;9.954;2023-04-24T11:02:48;50.29;43.24;72.78;;
11999;Laerm;40817;51.520;9.954;2023-04-24T11:05:17;48.85;43.29;65.08;;
11999;Laerm;40817;51.520;9.954;2023-04-24T11:08:14;49.71;42.29;64.81;;
11999;Laerm;40817;51.520;9.954;2023-04-24T11:10:47;56.86;43.34;71.49;;
11999;Laerm;40817;51.520;9.954;2023-04-24T11:13:16;45.92;42.88;57.07;;
11999;Laerm;40817;51.520;9.954;2023-04-24T11:15:45;46.31;43.04;55.91;;
11999;Laerm;40817;51.520;9.954;2023-04-24T11:18:37;44.64;41.82;52.58;;
11999;Laerm;40817;51.520;9.954;2023-04-24T11:21:11;45.73;42.76;58.70;;
11999;Laerm;40817;51.520;9.954;2023-04-24T11:23:39;46.50;43.05;59.49;;
11999;Laerm;40817;51.520;9.954;2023-04-24T11:26:12;52.81;43.54;68.19;;
11999;Laerm;40817;51.520;9.954;2023-04-24T11:28:50;46.84;42.65;61.41;;
11999;Laerm;40817;51.520;9.954;2023-04-24T11:31:39;48.60;42.53;68.04;;
11999;Laerm;40817;51.520;9.954;2023-04-24T11:34:12;51.89;42.88;73.11;;
11999;Laerm;40817;51.520;9.954;2023-04-24T11:36:42;50.74;42.95;67.35;;
11999;Laerm;40817;51.520;9.954;2023-04-24T11:39:10;54.43;43.81;74.07;;
11999;Laerm;40817;51.520;9.954;2023-04-24T11:41:39;50.08;43.54;68.78;;
11999;Laerm;40817;51.520;9.954;2023-04-24T11:44:08;51.20;43.77;67.13;;
11999;Laerm;40817;51.520;9.954;2023-04-24T11:46:37;55.19;43.72;76.23;;
11999;Laerm;40817;51.520;9.954;2023-04-24T11:49:10;51.62;42.82;69.04;;
11999;Laerm;40817;51.520;9.954;2023-04-24T11:51:39;50.24;42.76;67.78;;
11999;Laerm;40817;51.520;9.954;2023-04-24T11:54:08;46.59;42.16;62.42;;
11999;Laerm;40817;51.520;9.954;2023-04-24T11:56:37;46.04;42.16;64.58;;
11999;Laerm;40817;51.520;9.954;2023-04-24T11:59:05;46.41;42.03;60.66;;
11999;Laerm;40817;51.520;9.954;2023-04-24T12:01:44;45.43;40.80;57.75;;
11999;Laerm;40817;51.520;9.954;2023-04-24T12:04:13;48.28;43.14;63.73;;
11999;Laerm;40817;51.520;9.954;2023-04-24T12:07:00;48.56;42.03;64.39;;
11999;Laerm;40817;51.520;9.954;2023-04-24T12:09:28;45.50;42.03;58.82;;
11999;Laerm;40817;51.520;9.954;2023-04-24T12:11:56;48.05;42.16;61.47;;
11999;Laerm;40817;51.520;9.954;2023-04-24T12:14:24;47.22;42.82;60.93;;
11999;Laerm;40817;51.520;9.954;2023-04-24T12:16:53;47.77;42.69;63.01;;
11999;Laerm;40817;51.520;9.954;2023-04-24T12:19:22;46.28;42.53;60.26;;
11999;Laerm;40817;51.520;9.954;2023-04-24T12:22:05;48.05;42.76;75.53;;
11999;Laerm;40817;51.520;9.954;2023-04-24T12:24:33;45.44;42.74;57.27;;
11999;Laerm;40817;51.520;9.954;2023-04-24T12:27:00;48.45;42.82;64.70;;
11999;Laerm;40817;51.520;9.954;2023-04-24T12:29:28;47.97;42.30;64.20;;
11999;Laerm;40817;51.520;9.954;2023-04-24T12:31:57;49.41;42.82;70.38;;
11999;Laerm;40817;51.520;9.954;2023-04-24T12:34:25;48.45;42.65;65.40;;
11999;Laerm;40817;51.520;9.954;2023-04-24T12:36:53;48.32;42.71;63.69;;
11999;Laerm;40817;51.520;9.954;2023-04-24T12:39:21;47.22;42.59;69.59;;
11999;Laerm;40817;51.520;9.954;2023-04-24T12:41:55;46.76;42.71;59.67;;
11999;Laerm;40817;51.520;9.954;2023-04-24T12:44:31;49.05;41.75;62.02;;
11999;Laerm;40817;51.520;9.954;2023-04-24T12:47:02;50.88;42.98;63.26;;
11999;Laerm;40817;51.520;9.954;2023-04-24T12:49:30;50.93;43.19;65.57;;
11999;Laerm;40817;51.520;9.954;2023-04-24T12:51:58;47.28;42.41;61.06;;
11999;Laerm;40817;51.520;9.954;2023-04-24T12:54:26;49.78;43.29;62.02;;
11999;Laerm;40817;51.520;9.954;2023-04-24T12:56:59;48.21;42.82;64.93;;
11999;Laerm;40817;51.520;9.954;2023-04-24T12:59:28;57.39;42.76;70.89;;
11999;Laerm;40817;51.520;9.954;2023-04-24T13:01:56;48.14;42.00;62.63;;
11999;Laerm;40817;51.520;9.954;2023-04-24T13:04:24;48.13;42.16;64.55;;
11999;Laerm;40817;51.520;9.954;2023-04-24T13:06:52;47.34;42.65;62.68;;
11999;Laerm;40817;51.520;9.954;2023-04-24T13:09:20;48.67;42.22;63.50;;
11999;Laerm;40817;51.520;9.954;2023-04-24T13:11:47;45.22;42.71;54.78;;
11999;Laerm;40817;51.520;9.954;2023-04-24T13:14:15;44.95;41.89;55.86;;
11999;Laerm;40817;51.520;9.954;2023-04-24T13:16:42;45.31;42.41;55.63;;
11999;Laerm;40817;51.520;9.954;2023-04-24T13:19:10;46.39;42.22;66.08;;
11999;Laerm;40817;51.520;9.954;2023-04-24T13:21:39;51.76;43.44;68.03;;
11999;Laerm;40817;51.520;9.954;2023-04-24T13:24:06;54.70;44.19;71.46;;
11999;Laerm;40817;51.520;9.954;2023-04-24T13:26:46;55.96;44.31;70.78;;
11999;Laerm;40817;51.520;9.954;2023-04-24T13:29:14;50.93;44.11;69.41;;
11999;Laerm;40817;51.520;9.954;2023-04-24T13:31:41;51.20;43.49;62.61;;
11999;Laerm;40817;51.520;9.954;2023-04-24T13:34:09;50.23;43.39;63.68;;
11999;Laerm;40817;51.520;9.954;2023-04-24T13:36:38;64.16;44.62;80.97;;
11999;Laerm;40817;51.520;9.954;2023-04-24T13:39:06;48.33;43.58;65.25;;
11999;Laerm;40817;51.520;9.954;2023-04-24T13:41:34;46.89;41.68;67.28;;
11999;Laerm;40817;51.520;9.954;2023-04-24T13:44:02;51.26;43.72;65.30;;
11999;Laerm;40817;51.520;9.954;2023-04-24T13:46:30;46.81;42.82;59.52;;
11999;Laerm;40817;51.520;9.954;2023-04-24T13:48:58;47.69;42.88;59.55;;
11999;Laerm;40817;51.520;9.954;2023-04-24T13:51:26;45.69;42.71;57.69;;
11999;Laerm;40817;51.520;9.954;2023-04-24T13:53:55;49.69;42.47;67.45;;
11999;Laerm;40817;51.520;9.954;2023-04-24T13:56:23;52.29;42.35;67.33;;